Time;durP1;ratioP1;P1;durP2;ratioP2;P2;SDS_P1;SDS_P2;PMS_P1;PMS_P2;Temp;Humidity;BMP_temperature;BMP_pressure;BME280_temperature;BME280_humidity;BME280_pressure;Samples;Min_cycle;Max_cycle;Signal;HPM_P1;HPM_P2
2022/11/24 00:01:59;;;;;;;46.30;20.10;;;;;;;0.39;94.12;97463.78;102489;1302;137870;-73
2022/11/24 00:04:26;;;;;;;37.00;18.30;;;;;;;0.39;94.22;97466.84;102845;1315;22496;-74
2022/11/24 00:06:53;;;;;;;39.90;19.00;;;;;;;0.39;94.06;97468.23;102677;1304;137962;-74
2022/11/24 00:09:20;;;;;;;45.90;20.70;;;;;;;0.37;94.13;97467.03;103132;1294;26513;-74
2022/11/24 00:11:47;;;;;;;44.10;19.90;;;;;;;0.39;94.48;97467.41;102726;1303;24216;-73
2022/11/24 00:14:14;;;;;;;40.10;18.10;;;;;;;0.41;94.43;97468.73;102434;1304;137870;-73
2022/11/24 00:16:41;;;;;;;41.20;18.80;;;;;;;0.43;94.45;97470.38;102529;1310;22601;-73
2022/11/24 00:19:09;;;;;;;44.80;20.30;;;;;;;0.47;94.71;97474.38;102444;1309;138738;-73
2022/11/24 00:21:37;;;;;;;39.10;19.10;;;;;;;0.49;94.58;97476.15;102741;1313;22531;-73
2022/11/24 00:24:04;;;;;;;44.90;20.00;;;;;;;0.51;94.55;97476.98;103230;1316;22601;-74
2022/11/24 00:26:33;;;;;;;38.90;20.10;;;;;;;0.53;94.35;97482.75;102511;1300;137808;-73
2022/11/24 00:29:04;;;;;;;40.10;18.00;;;;;;;0.55;94.28;97483.25;102727;1294;25382;-73
2022/11/24 00:31:37;;;;;;;38.10;18.80;;;;;;;0.55;94.21;97486.00;102659;1301;138202;-74
2022/11/24 00:34:09;;;;;;;36.10;18.20;;;;;;;0.58;94.09;97491.16;102840;1315;22486;-74
2022/11/24 00:36:36;;;;;;;35.70;17.80;;;;;;;0.60;94.26;97494.63;102598;1315;22529;-73
2022/11/24 00:39:06;;;;;;;38.50;17.70;;;;;;;0.63;94.21;97495.29;102491;1316;137699;-73
2022/11/24 00:41:33;;;;;;;35.80;16.60;;;;;;;0.63;93.89;97498.67;102545;1316;27651;-73
2022/11/24 00:44:00;;;;;;;37.80;17.10;;;;;;;0.61;93.74;97500.81;102446;1316;138285;-73
2022/11/24 00:46:28;;;;;;;33.50;16.80;;;;;;;0.60;93.49;97499.73;102994;1303;25227;-73
2022/11/24 00:48:55;;;;;;;37.60;16.60;;;;;;;0.61;93.91;97500.52;102445;1293;137878;-73
2022/11/24 00:51:29;;;;;;;39.20;17.00;;;;;;;0.63;94.07;97495.46;103195;1301;22485;-73
2022/11/24 00:53:57;;;;;;;29.90;14.60;;;;;;;0.64;93.83;97499.23;102955;1315;24440;-73
2022/11/24 00:56:25;;;;;;;36.00;16.80;;;;;;;0.63;93.66;97494.71;102742;1307;137953;-73
2022/11/24 00:58:52;;;;;;;36.10;16.70;;;;;;;0.64;93.78;97493.31;102999;1291;25276;-73
2022/11/24 01:01:25;;;;;;;39.30;16.00;;;;;;;0.64;93.65;97493.46;102456;1314;138050;-73
2022/11/24 01:03:54;;;;;;;41.90;18.20;;;;;;;0.65;93.83;97492.98;103138;1295;22496;-74
2022/11/24 01:06:25;;;;;;;40.90;18.70;;;;;;;0.66;93.78;97496.10;102854;1312;24514;-74
2022/11/24 01:08:53;;;;;;;38.30;17.30;;;;;;;0.67;93.85;97498.27;102408;1297;138500;-73
2022/11/24 01:11:23;;;;;;;39.60;17.20;;;;;;;0.67;93.71;97503.70;102610;1295;22490;-73
2022/11/24 01:13:56;;;;;;;38.30;17.70;;;;;;;0.66;93.67;97501.96;102516;1307;138065;-73
2022/11/24 01:16:30;;;;;;;34.90;16.60;;;;;;;0.66;93.65;97505.89;103006;1308;22521;-73
2022/11/24 01:18:58;;;;;;;38.30;16.80;;;;;;;0.65;93.69;97506.54;102586;1287;137951;-73
2022/11/24 01:21:25;;;;;;;41.90;17.20;;;;;;;0.68;93.87;97509.09;102571;1293;22879;-73
2022/11/24 01:23:51;;;;;;;41.70;18.50;;;;;;;0.67;93.50;97509.97;102690;1292;22500;-73
2022/11/24 01:26:20;;;;;;;39.60;19.00;;;;;;;0.65;93.54;97511.45;102503;1308;137929;-73
2022/11/24 01:28:56;;;;;;;38.50;17.00;;;;;;;0.62;93.30;97514.73;102749;1292;22481;-73
2022/11/24 01:31:24;;;;;;;35.60;17.50;;;;;;;0.58;93.44;97518.04;104485;1291;137924;-74
2022/11/24 01:33:51;;;;;;;36.70;16.70;;;;;;;0.58;93.99;97518.23;103826;1301;22997;-74
2022/11/24 01:36:19;;;;;;;43.50;19.60;;;;;;;0.56;93.66;97514.25;102653;1295;22616;-74
2022/11/24 01:38:47;;;;;;;38.20;17.70;;;;;;;0.54;93.71;97515.55;102620;1315;137724;-73
2022/11/24 01:41:20;;;;;;;42.30;17.50;;;;;;;0.51;93.48;97515.59;103292;1291;22891;-74
2022/11/24 01:43:49;;;;;;;38.20;18.20;;;;;;;0.49;93.91;97514.55;102595;1311;138025;-73
2022/11/24 01:46:40;;;;;;;46.90;18.40;;;;;;;0.47;94.20;97517.03;102675;1291;22501;-74
2022/11/24 01:49:07;;;;;;;39.70;18.00;;;;;;;0.46;94.24;97516.41;102891;1302;137918;-73
2022/11/24 01:51:45;;;;;;;42.90;18.40;;;;;;;0.47;94.39;97517.44;102738;1307;25437;-73
2022/11/24 01:54:18;;;;;;;37.20;17.30;;;;;;;0.43;94.07;97513.61;103163;1292;22541;-73
2022/11/24 01:56:50;;;;;;;42.20;18.40;;;;;;;0.38;94.08;97520.35;102727;1300;138666;-74
2022/11/24 01:59:20;;;;;;;37.10;16.80;;;;;;;0.35;94.35;97526.58;102854;1301;25291;-73
2022/11/24 02:01:50;;;;;;;40.30;18.20;;;;;;;0.33;94.33;97533.52;102978;1284;137770;-74
2022/11/24 02:04:22;;;;;;;41.20;17.90;;;;;;;0.31;94.70;97538.79;102954;1303;25040;-74
2022/11/24 02:06:51;;;;;;;38.50;17.40;;;;;;;0.32;95.15;97542.52;102581;1305;22490;-74
2022/11/24 02:09:31;;;;;;;41.00;19.70;;;;;;;0.34;95.03;97548.73;102559;1309;138453;-74
2022/11/24 02:12:00;;;;;;;41.30;17.70;;;;;;;0.33;94.90;97550.86;102787;1300;23633;-73
2022/11/24 02:14:28;;;;;;;42.00;18.80;;;;;;;0.32;95.17;97546.66;102705;1316;137674;-74
2022/11/24 02:16:55;;;;;;;45.40;20.20;;;;;;;0.36;95.83;97546.64;102750;1294;22472;-73
2022/11/24 02:19:36;;;;;;;41.70;18.80;;;;;;;0.41;96.04;97549.73;102563;1304;137964;-74
2022/11/24 02:22:03;;;;;;;45.00;19.70;;;;;;;0.45;96.17;97547.40;102733;1307;23396;-73
2022/11/24 02:24:55;;;;;;;43.20;19.40;;;;;;;0.47;95.58;97549.50;102797;1315;22509;-73
2022/11/24 02:27:22;;;;;;;40.50;20.20;;;;;;;0.45;95.34;97551.96;102584;1316;24434;-73
2022/11/24 02:29:49;;;;;;;48.00;21.20;;;;;;;0.44;95.29;97553.44;102687;1316;24392;-73
2022/11/24 02:32:17;;;;;;;43.90;19.80;;;;;;;0.42;95.25;97554.98;102672;1315;137901;-74
2022/11/24 02:34:44;;;;;;;41.80;19.40;;;;;;;0.39;95.18;97555.50;102879;1315;24261;-74
2022/11/24 02:37:11;;;;;;;42.80;18.00;;;;;;;0.37;95.12;97553.48;102715;1315;138498;-73
2022/11/24 02:39:38;;;;;;;46.80;17.60;;;;;;;0.32;94.94;97550.45;102766;1294;25258;-74
2022/11/24 02:42:09;;;;;;;40.20;18.10;;;;;;;0.28;95.14;97551.48;102546;1302;22617;-74
2022/11/24 02:44:45;;;;;;;38.70;18.40;;;;;;;0.25;95.17;97548.17;102763;1315;137733;-74
2022/11/24 02:47:12;;;;;;;38.20;18.80;;;;;;;0.23;95.60;97550.52;102677;1297;22977;-74
2022/11/24 02:49:40;;;;;;;38.50;17.20;;;;;;;0.23;95.82;97548.41;102527;1293;138211;-74
2022/11/24 02:52:07;;;;;;;36.80;17.90;;;;;;;0.20;95.36;97549.51;102527;1317;22532;-74
2022/11/24 02:54:34;;;;;;;40.30;18.70;;;;;;;0.15;95.43;97550.40;102553;1310;22935;-74
2022/11/24 02:57:01;;;;;;;41.10;18.30;;;;;;;0.14;95.91;97550.20;102800;1307;138944;-74
2022/11/24 02:59:28;;;;;;;42.80;18.70;;;;;;;0.16;96.24;97552.79;102674;1300;22619;-74
2022/11/24 03:01:55;;;;;;;39.10;17.60;;;;;;;0.16;96.12;97552.50;102713;1294;138831;-74
2022/11/24 03:04:21;;;;;;;40.10;18.30;;;;;;;0.14;96.00;97551.35;102882;1301;22861;-74
2022/11/24 03:06:48;;;;;;;41.30;17.10;;;;;;;0.14;96.15;97550.85;102720;1295;22911;-74
2022/11/24 03:09:15;;;;;;;47.00;19.90;;;;;;;0.15;96.54;97552.30;102482;1290;138620;-73
2022/11/24 03:11:42;;;;;;;40.30;18.40;;;;;;;0.17;96.57;97553.75;102526;1293;25017;-74
2022/11/24 03:14:09;;;;;;;39.90;17.20;;;;;;;0.17;96.33;97558.44;102494;1300;137950;-73
2022/11/24 03:16:36;;;;;;;38.50;18.80;;;;;;;0.16;96.23;97554.77;102758;1316;25720;-74
2022/11/24 03:19:03;;;;;;;39.10;17.30;;;;;;;0.16;96.49;97554.77;102598;1291;138020;-74
2022/11/24 03:21:31;;;;;;;33.70;16.70;;;;;;;0.18;96.76;97557.21;102679;1294;22484;-73
2022/11/24 03:23:58;;;;;;;34.30;17.20;;;;;;;0.21;96.90;97555.11;102708;1293;22504;-74
2022/11/24 03:26:25;;;;;;;38.50;18.00;;;;;;;0.23;96.85;97557.10;102547;1295;139554;-73
2022/11/24 03:28:54;;;;;;;40.20;18.10;;;;;;;0.28;97.19;97555.05;102680;1290;22743;-73
2022/11/24 03:31:22;;;;;;;38.70;17.60;;;;;;;0.32;97.62;97553.37;103456;1311;138553;-74
2022/11/24 03:33:49;;;;;;;37.00;18.40;;;;;;;0.37;97.48;97549.19;102743;1310;22505;-74
2022/11/24 03:36:17;;;;;;;37.90;16.50;;;;;;;0.42;97.37;97549.77;102655;1310;25432;-73
2022/11/24 03:38:44;;;;;;;32.80;17.10;;;;;;;0.46;97.20;97552.55;102571;1301;138882;-74
2022/11/24 03:41:11;;;;;;;41.00;18.30;;;;;;;0.49;97.16;97555.61;102578;1306;22561;-73
2022/11/24 03:43:38;;;;;;;36.80;17.30;;;;;;;0.50;96.75;97553.55;102745;1293;138375;-74
2022/11/24 03:46:06;;;;;;;38.00;17.30;;;;;;;0.51;96.53;97555.90;102678;1316;25637;-74
2022/11/24 03:48:33;;;;;;;36.20;17.30;;;;;;;0.52;96.58;97554.91;102714;1292;25437;-73
2022/11/24 03:51:01;;;;;;;38.70;16.90;;;;;;;0.54;96.76;97556.56;102844;1308;137693;-74
2022/11/24 03:53:30;;;;;;;41.40;17.30;;;;;;;0.56;96.63;97561.14;103355;1291;22496;-74
2022/11/24 03:55:57;;;;;;;39.80;19.00;;;;;;;0.56;96.32;97564.31;102936;1285;138027;-74
2022/11/24 03:58:24;;;;;;;41.90;18.10;;;;;;;0.58;96.28;97569.39;102787;1295;22531;-74
2022/11/24 04:00:52;;;;;;;39.20;17.20;;;;;;;0.60;96.51;97573.31;102640;1300;22501;-73
2022/11/24 04:03:20;;;;;;;46.00;18.10;;;;;;;0.62;96.45;97574.55;102820;1315;138363;-74
2022/11/24 04:05:47;;;;;;;42.20;19.00;;;;;;;0.65;96.57;97576.45;102971;1316;24361;-73
2022/11/24 04:08:15;;;;;;;41.10;18.00;;;;;;;0.67;96.40;97577.02;102601;1295;137798;-73
2022/11/24 04:10:42;;;;;;;39.90;18.00;;;;;;;0.67;96.25;97572.74;102725;1307;24450;-73
2022/11/24 04:13:16;;;;;;;39.00;18.70;;;;;;;0.68;95.91;97573.57;102517;1308;139627;-74
2022/11/24 04:15:43;;;;;;;38.90;19.00;;;;;;;0.69;96.05;97577.73;102742;1316;25064;-73
2022/11/24 04:18:12;;;;;;;33.70;16.90;;;;;;;0.68;95.99;97581.14;102954;1303;24417;-74
2022/11/24 04:20:40;;;;;;;38.30;18.70;;;;;;;0.68;95.80;97582.13;102583;1302;137834;-73
2022/11/24 04:23:08;;;;;;;37.80;19.20;;;;;;;0.68;95.82;97580.27;102890;1291;22528;-74
2022/11/24 04:25:36;;;;;;;37.10;18.80;;;;;;;0.68;95.66;97579.62;102673;1287;138356;-74
2022/11/24 04:28:03;;;;;;;35.00;17.60;;;;;;;0.67;95.49;97587.95;103214;1295;22217;-75
2022/11/24 04:30:31;;;;;;;42.30;19.10;;;;;;;0.68;95.60;97590.88;102610;1304;22478;-73
2022/11/24 04:32:58;;;;;;;35.80;18.20;;;;;;;0.69;95.54;97586.10;102803;1305;137966;-73
2022/11/24 04:35:24;;;;;;;34.90;17.90;;;;;;;0.68;95.30;97590.17;102744;1315;24423;-73
2022/11/24 04:37:52;;;;;;;34.80;17.50;;;;;;;0.68;95.32;97591.75;102537;1315;138911;-73
2022/11/24 04:40:19;;;;;;;37.30;19.00;;;;;;;0.67;95.18;97590.55;102499;1301;22496;-73
2022/11/24 04:42:54;;;;;;;37.20;17.70;;;;;;;0.68;94.99;97595.37;102936;1315;24257;-73
2022/11/24 04:45:22;;;;;;;37.70;18.80;;;;;;;0.67;95.01;97598.17;102864;1301;137575;-74
2022/11/24 04:47:49;;;;;;;36.30;17.40;;;;;;;0.65;95.09;97600.52;103940;1308;22207;-74
2022/11/24 04:50:16;;;;;;;37.10;18.60;;;;;;;0.65;94.94;97602.87;102915;1316;137723;-73
2022/11/24 04:52:44;;;;;;;41.00;18.40;;;;;;;0.66;95.32;97599.38;102513;1312;22496;-73
2022/11/24 04:55:11;;;;;;;37.80;17.80;;;;;;;0.65;94.68;97601.09;102612;1301;138004;-74
2022/11/24 04:57:38;;;;;;;36.10;18.40;;;;;;;0.65;94.97;97601.14;102484;1315;22479;-74
2022/11/24 05:00:06;;;;;;;37.70;18.60;;;;;;;0.63;94.79;97605.09;102597;1299;24107;-73
2022/11/24 05:02:33;;;;;;;37.40;18.60;;;;;;;0.63;94.80;97609.75;102744;1300;137727;-73
2022/11/24 05:05:00;;;;;;;40.40;18.90;;;;;;;0.61;94.76;97610.36;102667;1290;22474;-74
2022/11/24 05:07:27;;;;;;;38.40;17.90;;;;;;;0.58;94.73;97608.45;102521;1310;138848;-73
2022/11/24 05:12:40;;;;;;;41.70;18.40;;;;;;;0.59;94.83;97614.77;102656;1312;22689;-74
2022/11/24 05:15:08;;;;;;;34.00;18.30;;;;;;;0.58;94.75;97615.09;102547;1298;137738;-74
2022/11/24 05:17:37;;;;;;;38.10;19.50;;;;;;;0.59;95.05;97620.41;102604;1299;25578;-74
2022/11/24 05:20:06;;;;;;;37.40;17.60;;;;;;;0.60;94.98;97617.77;102712;1301;138079;-73
2022/11/24 05:22:33;;;;;;;35.30;17.60;;;;;;;0.62;94.94;97620.30;103075;1310;22312;-74
2022/11/24 05:25:00;;;;;;;38.60;17.90;;;;;;;0.61;94.85;97618.73;103676;1295;24415;-73
2022/11/24 05:27:28;;;;;;;37.40;17.60;;;;;;;0.61;94.69;97618.19;102732;1307;24257;-73
2022/11/24 05:29:55;;;;;;;33.80;17.40;;;;;;;0.62;94.90;97617.75;102692;1316;24270;-73
2022/11/24 05:32:22;;;;;;;37.20;18.10;;;;;;;0.63;94.77;97618.73;102849;1316;137799;-73
2022/11/24 05:34:49;;;;;;;35.70;17.50;;;;;;;0.63;94.75;97619.98;102770;1316;22753;-73
2022/11/24 05:37:16;;;;;;;37.90;18.80;;;;;;;0.63;94.75;97620.42;102505;1297;138003;-74
2022/11/24 05:39:43;;;;;;;34.10;18.00;;;;;;;0.64;94.84;97622.24;103006;1296;22505;-74
2022/11/24 05:44:56;;;;;;;35.90;18.00;;;;;;;0.68;94.93;97626.20;102555;1297;139223;-73
2022/11/24 05:47:23;;;;;;;37.70;19.70;;;;;;;0.71;95.02;97630.50;103164;1307;23893;-73
2022/11/24 05:49:50;;;;;;;35.50;18.10;;;;;;;0.70;94.62;97631.08;102491;1298;137703;-73
2022/11/24 05:52:17;;;;;;;44.30;20.60;;;;;;;0.71;94.70;97635.24;102584;1301;26209;-74
2022/11/24 05:54:44;;;;;;;43.20;20.70;;;;;;;0.70;94.37;97637.23;102564;1313;22511;-73
2022/11/24 05:57:12;;;;;;;37.80;19.10;;;;;;;0.69;94.42;97641.79;102604;1298;137759;-73
2022/11/24 05:59:39;;;;;;;39.20;17.90;;;;;;;0.69;94.47;97643.94;102784;1312;22483;-73
2022/11/24 06:02:05;;;;;;;39.40;18.40;;;;;;;0.68;94.22;97649.91;102811;1306;137957;-73
2022/11/24 06:04:32;;;;;;;38.20;19.60;;;;;;;0.67;94.21;97652.27;102811;1297;22497;-73
2022/11/24 06:06:59;;;;;;;40.90;19.00;;;;;;;0.65;94.04;97651.91;102886;1305;22465;-73
2022/11/24 06:09:26;;;;;;;42.10;20.10;;;;;;;0.64;94.01;97654.31;102510;1290;137918;-73
2022/11/24 06:11:53;;;;;;;39.00;18.80;;;;;;;0.64;94.47;97657.07;102608;1301;24378;-74
2022/11/24 06:14:20;;;;;;;47.20;19.90;;;;;;;0.66;94.58;97659.34;102518;1294;138062;-74
2022/11/24 06:16:47;;;;;;;44.40;19.50;;;;;;;0.66;94.50;97661.83;102716;1307;24310;-74
2022/11/24 06:19:14;;;;;;;38.30;19.80;;;;;;;0.67;94.49;97664.04;102643;1291;138485;-74
2022/11/24 06:21:41;;;;;;;38.80;18.90;;;;;;;0.67;94.39;97665.98;102878;1316;23960;-73
2022/11/24 06:24:08;;;;;;;36.90;19.00;;;;;;;0.67;94.41;97667.79;102687;1298;22600;-73
2022/11/24 06:26:35;;;;;;;37.60;18.60;;;;;;;0.67;94.58;97671.42;102535;1309;138972;-74
2022/11/24 06:29:02;;;;;;;40.90;19.30;;;;;;;0.67;94.47;97666.89;102684;1295;25321;-74
2022/11/24 06:31:29;;;;;;;36.50;18.30;;;;;;;0.67;94.52;97668.12;102730;1295;137938;-74
2022/11/24 06:33:56;;;;;;;39.30;20.00;;;;;;;0.67;94.49;97674.27;102719;1286;22492;-74
2022/11/24 06:36:24;;;;;;;41.60;19.40;;;;;;;0.65;94.27;97675.50;102889;1316;23059;-74
2022/11/24 06:38:51;;;;;;;41.80;20.40;;;;;;;0.64;94.20;97675.90;103284;1308;137761;-73
2022/11/24 06:41:18;;;;;;;41.10;19.60;;;;;;;0.63;94.33;97680.52;102776;1306;24256;-74
2022/11/24 06:43:46;;;;;;;38.60;18.80;;;;;;;0.63;94.52;97679.73;102519;1315;139330;-73
2022/11/24 06:46:13;;;;;;;39.00;19.90;;;;;;;0.63;94.65;97679.78;102954;1306;22910;-73
2022/11/24 06:48:40;;;;;;;39.50;18.70;;;;;;;0.64;94.86;97684.69;103175;1298;25360;-74
2022/11/24 06:51:10;;;;;;;38.70;18.90;;;;;;;0.64;94.71;97684.42;102692;1312;138005;-73
2022/11/24 06:53:38;;;;;;;42.30;20.60;;;;;;;0.62;94.41;97684.23;102673;1293;22852;-74
2022/11/24 06:56:08;;;;;;;36.50;18.40;;;;;;;0.60;94.21;97692.88;103374;1308;138352;-74
2022/11/24 06:58:40;;;;;;;41.70;19.00;;;;;;;0.59;94.65;97689.45;102667;1310;24308;-74
2022/11/24 07:01:07;;;;;;;40.80;19.30;;;;;;;0.58;94.54;97690.27;103059;1290;138024;-74
2022/11/24 07:03:34;;;;;;;47.00;22.60;;;;;;;0.56;94.51;97693.67;102718;1298;22529;-74
2022/11/24 07:06:01;;;;;;;49.20;21.60;;;;;;;0.56;94.66;97695.86;102623;1314;22524;-74
2022/11/24 07:08:28;;;;;;;47.10;22.30;;;;;;;0.55;94.65;97700.27;102765;1294;138364;-74
2022/11/24 07:10:55;;;;;;;49.30;22.20;;;;;;;0.54;94.97;97699.66;102677;1293;22584;-74
2022/11/24 07:13:22;;;;;;;45.00;20.20;;;;;;;0.54;94.97;97701.39;102546;1292;138790;-74
2022/11/24 07:15:49;;;;;;;50.90;22.90;;;;;;;0.54;94.91;97701.27;102666;1285;24340;-74
2022/11/24 07:18:16;;;;;;;56.80;22.90;;;;;;;0.54;94.92;97707.48;102984;1295;22599;-74
2022/11/24 07:20:43;;;;;;;56.70;24.30;;;;;;;0.53;94.96;97708.55;102604;1309;137884;-73
2022/11/24 07:23:11;;;;;;;58.80;25.20;;;;;;;0.51;94.82;97706.66;103012;1301;22468;-74
2022/11/24 07:25:37;;;;;;;58.10;26.50;;;;;;;0.50;95.05;97711.27;103044;1300;138190;-74
2022/11/24 07:28:04;;;;;;;53.40;24.90;;;;;;;0.51;95.55;97714.48;102843;1315;22477;-74
2022/11/24 07:30:31;;;;;;;55.30;25.70;;;;;;;0.51;95.37;97720.05;102751;1302;22614;-74
2022/11/24 07:32:59;;;;;;;60.00;24.70;;;;;;;0.51;95.31;97720.98;102877;1311;137947;-73
2022/11/24 07:35:26;;;;;;;56.00;25.10;;;;;;;0.49;95.35;97717.51;102676;1302;24281;-74
2022/11/24 07:37:57;;;;;;;66.40;26.50;;;;;;;0.48;95.46;97717.05;102905;1301;138245;-75
2022/11/24 07:40:25;;;;;;;60.90;26.80;;;;;;;0.47;95.41;97717.30;102913;1316;24375;-74
2022/11/24 07:42:53;;;;;;;62.20;26.00;;;;;;;0.45;95.28;97719.02;102715;1316;23925;-74
2022/11/24 07:45:20;;;;;;;55.30;24.80;;;;;;;0.44;95.45;97716.50;101741;1316;1119861;-74
2022/11/24 07:47:47;;;;;;;58.30;26.70;;;;;;;0.44;95.80;97716.16;103049;1306;22648;-75
2022/11/24 07:50:14;;;;;;;57.60;25.30;;;;;;;0.45;95.80;97716.42;103026;1291;138188;-74
2022/11/24 07:52:41;;;;;;;66.70;27.00;;;;;;;0.45;96.05;97716.55;103117;1315;22503;-75
2022/11/24 07:55:08;;;;;;;60.90;25.70;;;;;;;0.47;96.04;97719.69;103209;1293;139964;-74
2022/11/24 07:57:35;;;;;;;61.90;24.60;;;;;;;0.48;96.08;97718.29;103063;1309;24254;-74
2022/11/24 08:00:04;;;;;;;57.40;25.30;;;;;;;0.49;96.17;97721.55;102824;1300;22647;-74
2022/11/24 08:02:32;;;;;;;59.30;24.60;;;;;;;0.50;96.17;97721.39;102613;1306;137751;-74
2022/11/24 08:04:59;;;;;;;62.20;25.90;;;;;;;0.52;96.13;97724.82;102784;1316;22559;-73
2022/11/24 08:07:26;;;;;;;62.40;27.00;;;;;;;0.53;96.16;97723.84;102801;1290;137965;-74
2022/11/24 08:09:53;;;;;;;63.30;26.00;;;;;;;0.55;96.25;97727.16;103241;1301;22492;-73
2022/11/24 08:12:22;;;;;;;58.30;24.80;;;;;;;0.57;96.17;97727.85;103094;1307;24445;-74
2022/11/24 08:14:58;;;;;;;54.30;25.50;;;;;;;0.58;96.06;97732.52;102523;1290;137806;-73
2022/11/24 08:17:45;;;;;;;50.40;25.00;;;;;;;0.61;96.19;97737.23;102890;1292;22870;-73
2022/11/24 08:20:13;;;;;;;60.80;26.90;;;;;;;0.62;96.02;97738.63;102828;1315;138180;-73
2022/11/24 08:22:40;;;;;;;55.90;25.80;;;;;;;0.63;96.08;97741.16;102546;1295;24291;-73
2022/11/24 08:25:07;;;;;;;55.20;25.00;;;;;;;0.65;96.18;97742.23;102416;1310;139419;-74
2022/11/24 08:27:34;;;;;;;52.70;24.60;;;;;;;0.66;96.01;97743.73;102538;1301;22521;-74
2022/11/24 08:30:01;;;;;;;49.80;23.50;;;;;;;0.64;95.84;97743.55;102617;1300;23364;-74
2022/11/24 08:32:29;;;;;;;48.70;23.50;;;;;;;0.64;96.05;97744.95;102555;1316;137809;-74
2022/11/24 08:34:56;;;;;;;51.60;23.20;;;;;;;0.65;96.00;97742.36;103395;1300;22512;-74
2022/11/24 08:37:25;;;;;;;53.10;24.90;;;;;;;0.67;96.06;97746.61;103190;1297;137990;-74
2022/11/24 08:39:52;;;;;;;52.10;23.40;;;;;;;0.67;95.94;97750.98;102900;1316;22731;-73
2022/11/24 08:42:19;;;;;;;49.60;23.30;;;;;;;0.69;95.83;97750.45;103175;1293;22490;-73
2022/11/24 08:44:46;;;;;;;50.60;23.40;;;;;;;0.71;96.04;97752.83;103486;1292;137794;-73
2022/11/24 08:47:13;;;;;;;50.00;23.60;;;;;;;0.74;96.06;97753.36;103539;1309;22470;-73
2022/11/24 08:49:40;;;;;;;47.60;23.50;;;;;;;0.79;96.26;97759.16;102863;1303;137923;-73
2022/11/24 08:52:07;;;;;;;52.10;24.30;;;;;;;0.83;96.21;97759.80;102858;1305;25344;-72
2022/11/24 08:54:33;;;;;;;45.50;22.10;;;;;;;0.88;96.17;97760.03;103011;1291;22496;-72
2022/11/24 08:57:00;;;;;;;52.30;23.40;;;;;;;0.93;96.13;97760.48;102652;1297;137898;-72
2022/11/24 08:59:27;;;;;;;49.10;21.40;;;;;;;0.97;95.88;97764.42;102777;1292;25561;-73
2022/11/24 09:01:54;;;;;;;46.90;22.10;;;;;;;1.00;95.81;97762.45;103072;1314;138309;-73
2022/11/24 09:04:21;;;;;;;53.10;22.10;;;;;;;1.05;95.87;97763.42;102566;1315;22505;-73
2022/11/24 09:06:48;;;;;;;49.70;21.60;;;;;;;1.10;95.83;97765.27;102957;1315;22507;-73
2022/11/24 09:09:14;;;;;;;50.80;22.80;;;;;;;1.16;95.90;97762.34;102856;1299;138367;-73
2022/11/24 09:11:41;;;;;;;47.80;22.20;;;;;;;1.20;95.65;97760.86;102681;1308;24065;-73
2022/11/24 09:14:08;;;;;;;55.90;23.70;;;;;;;1.27;95.43;97759.85;102484;1294;138270;-73
2022/11/24 09:16:35;;;;;;;44.10;22.00;;;;;;;1.31;95.18;97757.67;102894;1291;22481;-73
2022/11/24 09:19:05;;;;;;;46.40;20.40;;;;;;;1.35;95.16;97758.42;103098;1300;22483;-73
2022/11/24 09:21:36;;;;;;;45.40;22.20;;;;;;;1.38;94.92;97762.02;102872;1301;137635;-73
2022/11/24 09:24:09;;;;;;;45.40;21.20;;;;;;;1.40;94.83;97762.23;102845;1315;24440;-73
2022/11/24 09:26:37;;;;;;;41.80;21.40;;;;;;;1.45;94.80;97762.11;102477;1315;137763;-73
2022/11/24 09:29:06;;;;;;;43.50;21.00;;;;;;;1.47;94.74;97763.98;102594;1304;22481;-72
2022/11/24 09:31:36;;;;;;;48.10;21.80;;;;;;;1.50;94.62;97762.17;102903;1284;137936;-73
2022/11/24 09:34:06;;;;;;;41.60;20.30;;;;;;;1.53;94.45;97765.02;102954;1314;22628;-72
2022/11/24 09:36:33;;;;;;;46.70;22.40;;;;;;;1.54;94.22;97763.42;102889;1300;22491;-73
2022/11/24 09:39:00;;;;;;;50.90;22.40;;;;;;;1.59;94.44;97763.96;102666;1307;139163;-73
2022/11/24 09:41:35;;;;;;;43.40;21.70;;;;;;;1.64;94.36;97766.94;102537;1315;24333;-73
2022/11/24 09:44:35;;;;;;;48.10;22.30;;;;;;;1.68;94.10;97764.27;102527;1308;137735;-73
2022/11/24 09:47:13;;;;;;;49.90;23.00;;;;;;;1.73;93.90;97764.88;102532;1301;25381;-73
2022/11/24 09:49:58;;;;;;;44.70;22.40;;;;;;;1.76;93.81;97764.27;102544;1309;138657;-74
2022/11/24 09:53:16;;;;;;;48.50;22.30;;;;;;;1.80;93.60;97763.56;102767;1316;24583;-74
2022/11/24 09:55:49;;;;;;;49.20;24.30;;;;;;;1.86;93.81;97765.71;102758;1291;139778;-74
2022/11/24 09:58:32;;;;;;;50.40;23.00;;;;;;;1.93;93.77;97759.47;103274;1299;24424;-74
2022/11/24 10:01:06;;;;;;;47.30;21.20;;;;;;;1.98;93.31;97754.14;102770;1300;22499;-73
2022/11/24 10:03:38;;;;;;;42.60;22.00;;;;;;;1.99;92.82;97755.02;102445;1301;137499;-73
2022/11/24 10:06:20;;;;;;;48.20;22.40;;;;;;;2.04;93.01;97757.12;102776;1311;22518;-73
2022/11/24 10:09:10;;;;;;;41.50;22.20;;;;;;;2.09;92.58;97760.92;102803;1300;137748;-73
2022/11/24 10:11:47;;;;;;;41.00;20.40;;;;;;;2.13;92.47;97761.94;102484;1294;24453;-73
2022/11/24 10:14:34;;;;;;;42.10;20.80;;;;;;;2.16;92.13;97763.27;102471;1292;137767;-73
2022/11/24 10:17:33;;;;;;;47.00;21.50;;;;;;;2.19;92.10;97761.02;102630;1315;24479;-72
2022/11/24 10:20:13;;;;;;;40.70;20.00;;;;;;;2.20;91.73;97759.91;102483;1316;137735;-72
2022/11/24 10:22:56;;;;;;;33.20;17.30;;;;;;;2.21;91.57;97761.11;102839;1295;22472;-73
2022/11/24 10:25:29;;;;;;;32.90;16.30;;;;;;;2.22;91.42;97758.70;102424;1290;137882;-72
2022/11/24 10:28:03;;;;;;;36.40;19.00;;;;;;;2.22;91.11;97758.59;102595;1315;22596;-72
2022/11/24 10:30:30;;;;;;;34.50;17.90;;;;;;;2.27;91.51;97760.48;102500;1300;25533;-72
2022/11/24 10:33:02;;;;;;;33.50;18.80;;;;;;;2.31;91.61;97759.90;102958;1295;137733;-72
2022/11/24 10:35:48;;;;;;;36.80;20.30;;;;;;;2.36;91.54;97755.25;102662;1300;25303;-72
2022/11/24 10:38:22;;;;;;;40.00;20.80;;;;;;;2.38;91.30;97757.81;102531;1315;137719;-72
2022/11/24 10:41:04;;;;;;;38.50;20.30;;;;;;;2.39;91.16;97756.03;102585;1287;22505;-72
2022/11/24 10:43:33;;;;;;;35.50;19.60;;;;;;;2.36;90.75;97755.84;102555;1317;137878;-72
2022/11/24 10:46:23;;;;;;;37.00;19.70;;;;;;;2.34;90.90;97755.80;102612;1294;26514;-72
2022/11/24 10:48:58;;;;;;;36.90;20.10;;;;;;;2.29;90.94;97757.66;102635;1310;24076;-72
2022/11/24 10:51:43;;;;;;;35.40;19.50;;;;;;;2.22;90.54;97760.86;102654;1304;137918;-72
2022/11/24 10:54:19;;;;;;;34.20;19.10;;;;;;;2.17;90.57;97761.44;102662;1317;25455;-72
2022/11/24 10:56:50;;;;;;;36.80;20.70;;;;;;;2.11;90.62;97761.16;102726;1286;137868;-72
2022/11/24 10:59:23;;;;;;;40.60;21.60;;;;;;;2.02;90.57;97761.83;102515;1300;22500;-72
2022/11/24 11:09:09;;;;;;;42.10;19.20;;;;;;;1.83;91.37;97765.47;102714;1304;123873;-72
2022/11/24 11:11:38;;;;;;;38.00;19.00;;;;;;;1.79;91.42;97765.09;102208;1294;22491;-72
2022/11/24 11:14:07;;;;;;;33.50;17.80;;;;;;;1.76;91.46;97765.42;102097;1319;138149;-72
2022/11/24 11:16:37;;;;;;;38.30;19.40;;;;;;;1.70;91.59;97767.16;102497;1304;22527;-72
2022/11/24 11:24:00;;;;;;;34.80;18.60;;;;;;;1.60;91.83;97762.43;102555;1311;22830;-72
2022/11/24 11:30:15;;;;;;;32.90;17.10;;;;;;;1.42;91.54;97764.18;100161;1334;544894;-72
2022/11/24 11:32:58;;;;;;;30.50;18.00;;;;;;;1.31;91.73;97766.09;102271;1308;137326;-72
2022/11/24 11:35:33;;;;;;;30.50;18.60;;;;;;;1.26;92.13;97765.21;102060;1315;22512;-72
2022/11/24 11:38:06;;;;;;;34.00;18.90;;;;;;;1.22;92.37;97769.13;102054;1323;137598;-72
2022/11/24 11:40:35;;;;;;;30.90;19.30;;;;;;;1.16;92.23;97764.82;102092;1312;24346;-72
2022/11/24 11:43:19;;;;;;;34.30;18.60;;;;;;;1.11;92.55;97767.81;101048;1322;1151573;-72
2022/11/24 11:45:56;;;;;;;39.60;20.20;;;;;;;1.09;92.87;97772.93;102296;1315;25349;-72
2022/11/24 11:48:32;;;;;;;37.00;21.20;;;;;;;1.06;92.85;97771.88;102717;1310;22603;-72